createdAt,value
2022-09-13T00:02:23.671Z,62.42
2022-09-13T00:04:49.960Z,62.43
2022-09-13T00:07:16.304Z,62.57
2022-09-13T00:09:42.644Z,62.81
2022-09-13T00:12:08.991Z,62.82
2022-09-13T00:14:35.317Z,63.16
2022-09-13T00:17:01.673Z,63.41
2022-09-13T00:19:28.012Z,63.47
2022-09-13T00:21:54.368Z,63.61
2022-09-13T00:24:20.708Z,63.47
2022-09-13T00:26:47.028Z,63.83
2022-09-13T00:29:13.369Z,64.14
2022-09-13T00:31:39.719Z,64.25
2022-09-13T00:34:06.030Z,64.45
2022-09-13T00:36:32.372Z,64.74
2022-09-13T00:38:58.696Z,64.95
2022-09-13T00:41:25.046Z,64.91
2022-09-13T00:43:51.403Z,65.05
2022-09-13T00:46:17.755Z,65.24
2022-09-13T00:48:44.094Z,65.32
2022-09-13T00:51:10.454Z,65.40
2022-09-13T00:53:36.853Z,65.57
2022-09-13T00:56:03.128Z,65.63
2022-09-13T00:58:29.453Z,65.74
2022-09-13T01:00:55.814Z,65.76
2022-09-13T01:03:22.095Z,65.70
2022-09-13T01:05:48.446Z,65.89
2022-09-13T01:08:14.768Z,65.72
2022-09-13T01:10:41.113Z,65.78
2022-09-13T01:13:07.432Z,65.94
2022-09-13T01:15:33.761Z,65.61
2022-09-13T01:18:00.106Z,65.76
2022-09-13T01:20:26.465Z,65.83
2022-09-13T01:22:52.790Z,66.03
2022-09-13T01:25:19.142Z,66.00
2022-09-13T01:27:45.461Z,66.02
2022-09-13T01:30:11.815Z,66.12
2022-09-13T01:32:38.135Z,66.12
2022-09-13T01:35:04.484Z,66.25
2022-09-13T01:37:30.856Z,66.08
2022-09-13T01:39:57.217Z,66.14
2022-09-13T01:42:23.518Z,66.20
2022-09-13T01:44:49.863Z,66.09
2022-09-13T01:47:16.206Z,66.13
2022-09-13T01:49:42.563Z,66.22
2022-09-13T01:52:08.913Z,66.21
2022-09-13T01:54:35.237Z,66.24
2022-09-13T01:57:01.563Z,66.29
2022-09-13T01:59:27.890Z,66.41
2022-09-13T02:01:54.300Z,66.40
2022-09-13T02:04:20.582Z,66.51
2022-09-13T02:06:46.898Z,66.32
2022-09-13T02:09:13.271Z,66.54
2022-09-13T02:11:39.594Z,66.37
2022-09-13T02:14:05.920Z,66.25
2022-09-13T02:16:32.337Z,66.13
2022-09-13T02:18:58.622Z,66.19
2022-09-13T02:21:24.968Z,66.21
2022-09-13T02:23:51.312Z,66.26
2022-09-13T02:26:17.637Z,66.20
2022-09-13T02:28:43.995Z,66.15
2022-09-13T02:31:10.336Z,66.39
2022-09-13T02:33:36.683Z,66.32
2022-09-13T02:36:03.043Z,66.23
2022-09-13T02:38:29.391Z,66.27
2022-09-13T02:40:55.717Z,66.35
2022-09-13T02:43:22.089Z,66.61
2022-09-13T02:45:48.481Z,66.66
2022-09-13T02:48:14.765Z,66.55
2022-09-13T02:50:41.126Z,66.68
2022-09-13T02:53:07.477Z,67.28
2022-09-13T02:55:33.796Z,67.17
2022-09-13T02:58:00.128Z,67.60
2022-09-13T03:00:26.475Z,67.84
2022-09-13T03:02:52.820Z,67.69
2022-09-13T03:05:19.207Z,67.70
2022-09-13T03:07:45.533Z,67.96
2022-09-13T03:10:11.850Z,68.45
2022-09-13T03:12:38.181Z,68.69
2022-09-13T03:15:04.504Z,69.08
2022-09-13T03:17:30.879Z,69.31
2022-09-13T03:19:57.223Z,69.49
2022-09-13T03:22:23.550Z,69.71
2022-09-13T03:24:49.878Z,69.75
2022-09-13T03:27:16.224Z,69.89
2022-09-13T03:29:42.569Z,69.89
2022-09-13T03:32:09.010Z,69.84
2022-09-13T03:34:35.302Z,69.90
2022-09-13T03:37:01.649Z,69.82
2022-09-13T03:39:28.003Z,69.57
2022-09-13T03:41:54.327Z,69.52
2022-09-13T03:44:20.668Z,69.65
2022-09-13T03:46:46.993Z,69.63
2022-09-13T03:49:13.320Z,69.85
2022-09-13T03:51:39.648Z,70.10
2022-09-13T03:54:05.989Z,69.85
2022-09-13T03:56:32.337Z,69.73
2022-09-13T03:58:58.657Z,69.62
2022-09-13T04:01:25.043Z,69.53
2022-09-13T04:03:55.845Z,69.43
2022-09-13T04:06:17.680Z,69.31
2022-09-13T04:08:44.027Z,69.23
2022-09-13T04:11:10.402Z,69.18
2022-09-13T04:13:36.749Z,69.19
2022-09-13T04:16:03.112Z,69.29
2022-09-13T04:18:29.404Z,69.33
2022-09-13T04:20:55.758Z,69.28
2022-09-13T04:23:22.077Z,69.33
2022-09-13T04:25:48.404Z,69.33
2022-09-13T04:28:14.757Z,69.43
2022-09-13T04:30:42.787Z,69.41
2022-09-13T04:33:07.438Z,69.44
2022-09-13T04:35:33.768Z,69.61
2022-09-13T04:38:00.114Z,69.62
2022-09-13T04:40:26.472Z,69.55
2022-09-13T04:42:52.853Z,71.34
2022-09-13T04:45:19.200Z,74.09
2022-09-13T04:47:45.516Z,75.35
2022-09-13T04:50:11.847Z,76.06
2022-09-13T04:52:38.169Z,74.96
2022-09-13T04:55:04.488Z,73.58
2022-09-13T04:57:30.812Z,72.58
2022-09-13T04:59:57.175Z,72.00
2022-09-13T05:02:23.553Z,72.61
2022-09-13T05:04:49.871Z,72.55
2022-09-13T05:07:16.230Z,72.69
2022-09-13T05:09:42.567Z,72.22
2022-09-13T05:12:08.912Z,72.06
2022-09-13T05:14:35.274Z,72.19
2022-09-13T05:17:01.616Z,72.35
2022-09-13T05:19:27.979Z,72.27
2022-09-13T05:21:54.313Z,71.38
2022-09-13T05:24:20.645Z,71.52
2022-09-13T05:26:47.032Z,71.12
2022-09-13T05:29:13.359Z,70.82
2022-09-13T05:31:39.781Z,70.09
2022-09-13T05:34:06.064Z,70.18
2022-09-13T05:36:32.424Z,69.33
2022-09-13T05:39:26.046Z,68.89
2022-09-13T05:41:25.097Z,68.98
2022-09-13T05:43:54.136Z,68.74
2022-09-13T05:46:17.977Z,68.14
2022-09-13T05:48:44.087Z,68.67
2022-09-13T05:51:10.439Z,68.22
2022-09-13T05:53:36.782Z,66.99
2022-09-13T05:56:03.105Z,67.71
2022-09-13T05:58:29.464Z,67.29
2022-09-13T06:00:55.866Z,66.42
2022-09-13T06:03:22.217Z,66.97
2022-09-13T06:05:48.536Z,65.92
2022-09-13T06:08:14.870Z,64.46
2022-09-13T06:10:41.196Z,65.00
2022-09-13T06:13:07.557Z,64.73
2022-09-13T06:15:33.915Z,64.27
2022-09-13T06:18:00.263Z,64.25
2022-09-13T06:20:28.802Z,64.67
2022-09-13T06:22:55.152Z,63.14
2022-09-13T06:25:21.488Z,62.69
2022-09-13T06:27:50.053Z,62.16
2022-09-13T06:30:14.296Z,61.12
2022-09-13T06:32:40.642Z,61.58
2022-09-13T06:35:07.001Z,61.62
2022-09-13T06:37:33.347Z,61.31
2022-09-13T06:39:59.733Z,61.49
2022-09-13T06:42:26.027Z,61.04
2022-09-13T06:44:52.378Z,61.04
2022-09-13T06:47:18.715Z,59.66
2022-09-13T06:49:45.063Z,59.69
2022-09-13T06:52:11.410Z,59.08
2022-09-13T06:54:37.750Z,58.90
2022-09-13T06:57:04.080Z,58.79
2022-09-13T06:59:30.491Z,58.90
2022-09-13T07:01:56.869Z,57.89
2022-09-13T07:04:23.196Z,56.44
2022-09-13T07:06:49.546Z,56.59
2022-09-13T07:09:15.878Z,56.19
2022-09-13T07:11:42.223Z,55.58
2022-09-13T07:14:08.551Z,54.92
2022-09-13T07:16:34.929Z,54.92
2022-09-13T07:19:01.314Z,55.08
2022-09-13T07:21:27.650Z,54.30
2022-09-13T07:23:53.998Z,54.41
2022-09-13T07:26:20.349Z,53.95
2022-09-13T07:28:46.777Z,53.04
2022-09-13T07:31:13.142Z,53.30
2022-09-13T07:33:39.364Z,53.22
2022-09-13T07:36:05.694Z,53.19
2022-09-13T07:38:32.026Z,52.10
2022-09-13T07:40:58.362Z,51.90
2022-09-13T07:43:24.696Z,51.77
2022-09-13T07:45:51.133Z,51.54
2022-09-13T07:48:17.512Z,50.82
2022-09-13T07:50:43.860Z,50.95
2022-09-13T07:53:10.213Z,49.60
2022-09-13T07:55:36.537Z,49.39
2022-09-13T07:58:02.895Z,48.37
2022-09-13T08:00:29.261Z,48.21
2022-09-13T08:02:55.610Z,47.83
2022-09-13T08:05:21.936Z,48.14
2022-09-13T08:07:48.343Z,47.12
2022-09-13T08:10:14.694Z,46.18
2022-09-13T08:12:41.017Z,45.65
2022-09-13T08:15:07.367Z,45.56
2022-09-13T08:17:33.729Z,45.43
2022-09-13T08:20:00.058Z,44.22
2022-09-13T08:22:26.390Z,44.40
2022-09-13T08:24:52.746Z,44.78
2022-09-13T08:27:19.089Z,44.48
2022-09-13T08:29:45.435Z,43.91
2022-09-13T08:32:11.791Z,43.91
2022-09-13T08:34:38.139Z,43.73
2022-09-13T08:37:04.813Z,44.26
2022-09-13T08:39:33.469Z,44.27
2022-09-13T08:41:57.542Z,43.74
2022-09-13T08:44:23.859Z,44.37
2022-09-13T08:46:50.197Z,44.69
2022-09-13T08:49:16.710Z,44.81
2022-09-13T08:51:42.889Z,45.12
2022-09-13T08:54:09.206Z,44.31
2022-09-13T08:56:35.533Z,42.96
2022-09-13T08:59:01.854Z,42.66
2022-09-13T09:01:28.299Z,42.70
2022-09-13T09:03:54.588Z,41.85
2022-09-13T09:06:20.931Z,40.85
2022-09-13T09:08:47.276Z,40.10
2022-09-13T09:11:13.611Z,38.83
2022-09-13T09:13:39.999Z,39.41
2022-09-13T09:16:06.426Z,38.56
2022-09-13T09:18:32.688Z,38.47
2022-09-13T09:20:59.010Z,38.07
2022-09-13T09:23:25.368Z,37.58
2022-09-13T09:25:51.711Z,37.01
2022-09-13T09:28:18.091Z,36.70
2022-09-13T09:30:44.446Z,36.03
2022-09-13T09:33:10.746Z,36.05
2022-09-13T09:35:37.082Z,36.11
2022-09-13T09:38:03.426Z,35.93
2022-09-13T09:40:31.719Z,36.79
2022-09-13T09:42:56.082Z,37.09
2022-09-13T09:45:22.427Z,36.80
2022-09-13T09:47:48.780Z,36.54
2022-09-13T09:50:15.110Z,36.79
2022-09-13T09:52:41.463Z,37.16
2022-09-13T09:55:07.791Z,37.14
2022-09-13T09:57:34.138Z,37.73
2022-09-13T10:00:00.465Z,37.43
2022-09-13T10:02:26.888Z,37.32
2022-09-13T10:04:53.212Z,36.48
2022-09-13T10:07:19.540Z,36.01
2022-09-13T10:09:45.877Z,36.29
2022-09-13T10:12:12.236Z,36.34
2022-09-13T10:14:38.567Z,36.07
2022-09-13T10:17:04.919Z,36.64
2022-09-13T10:19:31.296Z,36.55
2022-09-13T10:21:57.620Z,35.76
2022-09-13T10:24:23.958Z,35.39
2022-09-13T10:26:50.307Z,34.83
2022-09-13T10:29:16.700Z,34.39
2022-09-13T10:31:43.028Z,34.08
2022-09-13T10:34:09.390Z,33.76
2022-09-13T10:36:51.788Z,33.84
2022-09-13T10:39:02.124Z,33.38
2022-09-13T10:41:28.453Z,33.04
2022-09-13T10:43:54.812Z,32.92
2022-09-13T10:46:21.207Z,32.54
2022-09-13T10:48:47.514Z,32.17
2022-09-13T10:51:13.858Z,31.67
2022-09-13T10:53:40.204Z,31.24
2022-09-13T10:56:06.557Z,31.41
2022-09-13T10:58:32.914Z,31.54
2022-09-13T11:00:59.351Z,31.74
2022-09-13T11:03:25.567Z,32.10
2022-09-13T11:05:51.920Z,31.56
2022-09-13T11:08:18.247Z,31.37
2022-09-13T11:10:44.620Z,31.31
2022-09-13T11:13:10.987Z,31.55
2022-09-13T11:15:37.310Z,31.80
2022-09-13T11:18:03.667Z,31.52
2022-09-13T11:20:30.027Z,31.12
2022-09-13T11:22:56.353Z,30.92
2022-09-13T11:25:22.704Z,30.76
2022-09-13T11:27:49.050Z,30.55
2022-09-13T11:30:15.395Z,30.50
2022-09-13T11:32:41.742Z,30.39
2022-09-13T11:35:08.087Z,30.14
2022-09-13T11:37:34.421Z,30.35
2022-09-13T11:40:00.841Z,30.99
2022-09-13T11:42:27.374Z,30.65
2022-09-13T11:44:53.790Z,30.40
2022-09-13T11:47:20.312Z,30.33
2022-09-13T11:49:46.663Z,30.56
2022-09-13T11:52:13.039Z,30.82
2022-09-13T11:54:39.395Z,30.69
2022-09-13T11:57:05.749Z,30.76
2022-09-13T11:59:32.092Z,30.57
2022-09-13T12:01:58.528Z,30.73
2022-09-13T12:04:25.691Z,30.53
2022-09-13T12:06:51.109Z,30.27
2022-09-13T12:09:17.457Z,30.31
2022-09-13T12:11:43.810Z,30.54
2022-09-13T12:14:10.162Z,30.71
2022-09-13T12:16:36.659Z,30.62
2022-09-13T12:19:02.847Z,30.84
2022-09-13T12:21:29.182Z,31.15
2022-09-13T12:23:55.529Z,31.26
2022-09-13T12:26:21.867Z,30.87
2022-09-13T12:28:48.264Z,31.05
2022-09-13T12:31:14.614Z,31.08
2022-09-13T12:33:40.940Z,31.09
2022-09-13T12:36:07.358Z,31.21
2022-09-13T12:38:33.695Z,31.06
2022-09-13T12:41:00.072Z,31.09
2022-09-13T12:43:26.384Z,30.73
2022-09-13T12:45:52.747Z,30.62
2022-09-13T12:48:19.481Z,30.72
2022-09-13T12:50:45.890Z,30.82
2022-09-13T12:53:12.163Z,30.90
2022-09-13T12:55:47.441Z,31.27
2022-09-13T12:58:04.936Z,31.24
2022-09-13T13:00:31.259Z,31.23
2022-09-13T13:02:57.623Z,31.23
2022-09-13T13:05:23.953Z,31.30
2022-09-13T13:07:50.290Z,31.34
2022-09-13T13:10:16.622Z,31.71
2022-09-13T13:12:42.974Z,31.80
2022-09-13T13:15:09.306Z,31.91
2022-09-13T13:17:35.648Z,32.03
2022-09-13T13:20:02.001Z,31.96
2022-09-13T13:22:28.326Z,32.86
2022-09-13T13:24:54.717Z,32.55
2022-09-13T13:27:21.058Z,32.78
2022-09-13T13:29:47.404Z,32.91
2022-09-13T13:32:13.771Z,32.98
2022-09-13T13:34:40.111Z,33.51
2022-09-13T13:37:06.464Z,33.62
2022-09-13T13:39:32.794Z,33.77
2022-09-13T13:41:59.154Z,33.70
2022-09-13T13:44:25.491Z,33.66
2022-09-13T13:46:51.834Z,33.61
2022-09-13T13:49:18.214Z,33.58
2022-09-13T13:51:44.567Z,33.86
2022-09-13T13:54:10.931Z,34.13
2022-09-13T13:56:37.284Z,34.85
2022-09-13T13:59:03.630Z,35.11
2022-09-13T14:01:29.961Z,35.26
2022-09-13T14:03:56.322Z,35.58
2022-09-13T14:06:23.145Z,35.57
2022-09-13T14:08:49.587Z,35.48
2022-09-13T14:11:15.871Z,35.37
2022-09-13T14:13:42.271Z,35.78
2022-09-13T14:16:08.578Z,35.70
2022-09-13T14:18:34.989Z,35.66
2022-09-13T14:21:01.278Z,35.65
2022-09-13T14:23:27.631Z,35.51
2022-09-13T14:25:53.993Z,35.67
2022-09-13T14:28:20.351Z,35.58
2022-09-13T14:30:46.700Z,35.90
2022-09-13T14:33:13.066Z,35.96
2022-09-13T14:35:39.390Z,35.92
2022-09-13T14:38:05.724Z,36.04
2022-09-13T14:40:32.129Z,36.42
2022-09-13T14:42:58.403Z,36.57
2022-09-13T14:45:24.757Z,36.63
2022-09-13T14:47:51.157Z,36.34
2022-09-13T14:50:17.443Z,36.29
2022-09-13T14:52:43.802Z,36.33
2022-09-13T14:55:10.162Z,36.15
2022-09-13T14:57:36.487Z,35.95
2022-09-13T15:00:02.842Z,35.94
2022-09-13T15:02:29.354Z,36.16
2022-09-13T15:04:55.763Z,36.34
2022-09-13T15:07:22.074Z,36.28
2022-09-13T15:09:48.420Z,36.56
2022-09-13T15:12:14.747Z,36.55
2022-09-13T15:14:41.082Z,36.47
2022-09-13T15:17:07.427Z,36.79
2022-09-13T15:19:33.764Z,36.86
2022-09-13T15:22:00.117Z,36.98
2022-09-13T15:24:26.440Z,37.11
2022-09-13T15:26:52.799Z,37.20
2022-09-13T15:29:19.148Z,37.08
2022-09-13T15:31:45.538Z,37.05
2022-09-13T15:34:11.842Z,37.43
2022-09-13T15:36:38.175Z,37.50
2022-09-13T15:39:04.526Z,37.79
2022-09-13T15:41:30.899Z,37.99
2022-09-13T15:43:57.274Z,37.93
2022-09-13T15:46:23.631Z,37.99
2022-09-13T15:48:49.947Z,38.29
2022-09-13T15:51:16.320Z,38.33
2022-09-13T15:53:42.646Z,38.24
2022-09-13T15:56:08.996Z,38.25
2022-09-13T15:58:35.333Z,38.23
2022-09-13T16:01:01.719Z,38.29
2022-09-13T16:03:27.986Z,38.15
2022-09-13T16:05:54.355Z,38.37
2022-09-13T16:08:20.679Z,38.60
2022-09-13T16:10:47.028Z,38.51
2022-09-13T16:13:13.341Z,38.45
2022-09-13T16:15:39.671Z,38.63
2022-09-13T16:18:06.032Z,38.78
2022-09-13T16:20:32.379Z,38.88
2022-09-13T16:22:58.691Z,39.09
2022-09-13T16:25:25.058Z,39.33
2022-09-13T16:27:51.410Z,39.40
2022-09-13T16:30:17.759Z,39.35
2022-09-13T16:32:44.139Z,40.07
2022-09-13T16:35:10.490Z,39.83
2022-09-13T16:37:36.839Z,39.85
2022-09-13T16:40:03.223Z,39.77
2022-09-13T16:42:29.548Z,39.88
2022-09-13T16:44:55.902Z,39.89
2022-09-13T16:47:22.267Z,40.09
2022-09-13T16:49:48.605Z,40.02
2022-09-13T16:52:14.933Z,40.37
2022-09-13T16:54:41.285Z,40.62
2022-09-13T16:57:07.634Z,40.50
2022-09-13T16:59:33.969Z,40.88
2022-09-13T17:02:00.418Z,41.48
2022-09-13T17:04:26.677Z,41.61
2022-09-13T17:06:53.025Z,41.88
2022-09-13T17:09:19.358Z,42.05
2022-09-13T17:11:45.691Z,42.28
2022-09-13T17:14:12.044Z,42.38
2022-09-13T17:16:38.488Z,42.69
2022-09-13T17:19:04.727Z,42.78
2022-09-13T17:21:31.061Z,42.89
2022-09-13T17:23:57.414Z,43.18
2022-09-13T17:26:23.771Z,43.27
2022-09-13T17:28:50.109Z,43.41
2022-09-13T17:31:16.458Z,43.65
2022-09-13T17:33:42.834Z,43.60
2022-09-13T17:36:09.152Z,43.91
2022-09-13T17:38:35.469Z,43.93
2022-09-13T17:41:01.793Z,43.78
2022-09-13T17:43:28.138Z,43.95
2022-09-13T17:45:54.486Z,44.21
2022-09-13T17:48:20.812Z,44.20
2022-09-13T17:50:47.200Z,44.41
2022-09-13T17:53:13.536Z,44.67
2022-09-13T17:55:39.867Z,44.78
2022-09-13T17:58:06.258Z,44.91
2022-09-13T18:00:32.590Z,45.10
2022-09-13T18:02:58.975Z,45.12
2022-09-13T18:05:25.306Z,45.14
2022-09-13T18:07:51.667Z,45.22
2022-09-13T18:10:45.165Z,45.38
2022-09-13T18:12:44.329Z,45.62
2022-09-13T18:15:10.667Z,45.78
2022-09-13T18:17:37.003Z,45.94
2022-09-13T18:20:03.374Z,46.06
2022-09-13T18:22:29.718Z,46.14
2022-09-13T18:24:56.063Z,46.04
2022-09-13T18:27:22.430Z,46.30
2022-09-13T18:29:48.768Z,46.42
2022-09-13T18:32:15.098Z,46.47
2022-09-13T18:34:41.461Z,46.40
2022-09-13T18:37:07.789Z,46.75
2022-09-13T18:39:34.118Z,46.74
2022-09-13T18:42:00.611Z,46.63
2022-09-13T18:44:26.973Z,47.02
2022-09-13T18:46:53.308Z,47.12
2022-09-13T18:49:19.697Z,47.13
2022-09-13T18:51:46.019Z,47.33
2022-09-13T18:54:12.344Z,47.60
2022-09-13T18:56:38.719Z,47.81
2022-09-13T18:59:05.056Z,47.92
2022-09-13T19:01:31.517Z,47.94
2022-09-13T19:03:57.729Z,48.28
2022-09-13T19:06:24.048Z,48.40
2022-09-13T19:08:50.392Z,48.36
2022-09-13T19:11:42.089Z,48.54
2022-09-13T19:13:43.124Z,48.61
2022-09-13T19:16:09.506Z,48.95
2022-09-13T19:18:35.798Z,49.09
2022-09-13T19:21:02.139Z,49.20
2022-09-13T19:23:43.150Z,49.32
2022-09-13T19:25:54.829Z,49.51
2022-09-13T19:28:21.194Z,49.54
2022-09-13T19:30:47.559Z,50.01
2022-09-13T19:33:13.884Z,50.15
2022-09-13T19:35:40.225Z,50.10
2022-09-13T19:38:06.917Z,50.28
2022-09-13T19:40:33.280Z,50.65
2022-09-13T19:42:59.612Z,50.90
2022-09-13T19:45:25.947Z,51.00
2022-09-13T19:48:34.767Z,50.94
2022-09-13T19:50:18.660Z,50.98
2022-09-13T19:52:44.988Z,50.99
2022-09-13T19:55:11.311Z,51.03
2022-09-13T19:57:39.951Z,51.02
2022-09-13T20:00:03.991Z,51.06
2022-09-13T20:02:30.342Z,51.14
2022-09-13T20:04:56.799Z,51.26
2022-09-13T20:07:23.045Z,51.38
2022-09-13T20:09:49.387Z,51.55
2022-09-13T20:12:15.751Z,51.80
2022-09-13T20:14:42.079Z,52.05
2022-09-13T20:17:08.653Z,52.33
2022-09-13T20:19:47.587Z,52.84
2022-09-13T20:22:01.313Z,52.73
2022-09-13T20:24:27.661Z,52.82
2022-09-13T20:26:54.223Z,53.09
2022-09-13T20:29:20.700Z,53.30
2022-09-13T20:31:47.133Z,53.48
2022-09-13T20:34:13.510Z,53.78
2022-09-13T20:36:40.036Z,53.99
2022-09-13T20:39:06.627Z,54.08
2022-09-13T20:41:33.000Z,54.23
2022-09-13T20:43:59.329Z,54.27
2022-09-13T20:46:25.736Z,54.46
2022-09-13T20:48:52.023Z,54.70
2022-09-13T20:51:18.345Z,54.94
2022-09-13T20:53:44.663Z,54.91
2022-09-13T20:56:11.011Z,54.98
2022-09-13T20:58:37.347Z,54.97
2022-09-13T21:01:03.737Z,54.73
2022-09-13T21:03:30.031Z,54.84
2022-09-13T21:05:56.377Z,55.05
2022-09-13T21:08:22.722Z,54.96
2022-09-13T21:10:49.048Z,54.82
2022-09-13T21:13:17.853Z,54.92
2022-09-13T21:15:44.179Z,55.27
2022-09-13T21:18:10.523Z,55.41
2022-09-13T21:20:36.902Z,55.49
2022-09-13T21:23:03.249Z,55.29
2022-09-13T21:25:29.565Z,55.42
2022-09-13T21:27:55.909Z,55.42
2022-09-13T21:30:22.250Z,55.59
2022-09-13T21:32:48.582Z,55.74
2022-09-13T21:35:14.939Z,55.65
2022-09-13T21:37:41.274Z,55.87
2022-09-13T21:40:07.650Z,56.11
2022-09-13T21:42:33.948Z,56.35
2022-09-13T21:45:00.293Z,56.63
2022-09-13T21:47:26.606Z,56.47
2022-09-13T21:49:52.932Z,56.60
2022-09-13T21:52:19.274Z,56.62
2022-09-13T21:54:45.616Z,56.42
2022-09-13T21:57:11.970Z,56.15
2022-09-13T21:59:38.313Z,56.19
2022-09-13T22:02:04.680Z,56.27
2022-09-13T22:04:31.044Z,56.40
2022-09-13T22:06:57.377Z,56.37
2022-09-13T22:09:23.710Z,56.53
2022-09-13T22:11:50.087Z,56.72
2022-09-13T22:14:16.432Z,56.77
2022-09-13T22:16:42.817Z,56.75
2022-09-13T22:19:09.576Z,56.83
2022-09-13T22:21:35.443Z,56.86
2022-09-13T22:24:01.798Z,57.00
2022-09-13T22:26:28.142Z,57.05
2022-09-13T22:28:54.467Z,57.10
2022-09-13T22:31:20.903Z,57.07
2022-09-13T22:33:47.217Z,57.18
2022-09-13T22:36:13.476Z,57.08
2022-09-13T22:38:39.864Z,57.15
2022-09-13T22:41:06.208Z,57.32
2022-09-13T22:43:32.527Z,57.46
2022-09-13T22:45:58.897Z,57.45
2022-09-13T22:48:25.211Z,57.59
2022-09-13T22:50:51.537Z,57.58
2022-09-13T22:53:17.862Z,57.68
2022-09-13T22:55:44.183Z,57.79
2022-09-13T22:58:10.512Z,58.16
2022-09-13T23:00:36.860Z,58.30
2022-09-13T23:03:03.217Z,58.23
2022-09-13T23:05:29.564Z,58.30
2022-09-13T23:07:55.910Z,57.98
2022-09-13T23:10:22.254Z,57.98
2022-09-13T23:12:48.602Z,58.03
2022-09-13T23:15:14.914Z,58.22
2022-09-13T23:17:41.246Z,58.43
2022-09-13T23:20:07.627Z,58.60
2022-09-13T23:22:33.950Z,58.67
2022-09-13T23:25:00.291Z,58.63
2022-09-13T23:27:26.618Z,58.67
2022-09-13T23:29:52.984Z,58.65
2022-09-13T23:32:19.305Z,58.67
2022-09-13T23:34:45.621Z,58.95
2022-09-13T23:37:11.951Z,59.09
2022-09-13T23:39:38.294Z,59.07
2022-09-13T23:42:04.677Z,59.34
2022-09-13T23:44:31.017Z,59.21
2022-09-13T23:46:57.337Z,59.42
2022-09-13T23:49:23.703Z,59.23
2022-09-13T23:51:50.051Z,59.49
2022-09-13T23:54:16.410Z,59.88
2022-09-13T23:56:42.740Z,59.91
2022-09-13T23:59:09.087Z,60.11
